ADDS METAR Data INFO
IDs: Format: Raw Decoded Include TAF

Data at: 1137 UTC 17 Jul 2018

KOPF 171053Z AUTO 00000KT 10SM CLR 27/24 A3011 RMK AO2 SLP195 T02670244
KOPF 170953Z AUTO 00000KT 10SM CLR 26/25 A3010 RMK AO2 SLP192 T02610250
KOPF 170853Z AUTO 00000KT 10SM FEW080 27/24 A3009 RMK AO2 SLP189 T02670244 58004
KOPF 170753Z AUTO 00000KT 10SM CLR 27/24 A3009 RMK AO2 SLP191 T02720244
KOPF 170653Z AUTO 00000KT 10SM CLR 27/24 A3010 RMK AO2 SLP193 T02720244
KOPF 170553Z AUTO 00000KT 10SM CLR 27/24 A3010 RMK AO2 SLP193 T02720244 10289 20272 58003
KOPF 170453Z AUTO 20004KT 10SM CLR 27/24 A3010 RMK AO2 SLP194 T02720244 403280261
KOPF 170353Z AUTO 18003KT 10SM CLR 28/24 A3011 RMK AO2 SLP196 T02780244
KOPF 170253Z 18004KT 10SM CLR 28/24 A3011 RMK AO2 SLP196 T02830239 51015
KOPF 170153Z 16003KT 10SM CLR 28/24 A3010 RMK AO2 SLP193 T02830239
KOPF 170053Z 30004KT 10SM CLR 28/24 A3008 RMK AO2 LTG DSNT W SLP187 T02780244
KOPF 162353Z 30004KT 10SM CLR 28/24 A3006 RMK AO2 SLP181 T02830239 10328 20272 53003
KOPF 162253Z 00000KT 10SM CLR 28/24 A3005 RMK AO2 LTG DSNT N TSE2159 SLP175 T02830239
KOPF 162214Z 27006KT 10SM CLR 28/24 A3006 RMK AO2 LTG DSNT N TSE2159 T02830239
KOPF 162205Z 27010KT 10SM VCTS CLR 28/24 A3006 RMK AO2 LTG DSNT N TSE2159 T02830239
KOPF 162153Z 26010G19KT 10SM TS FEW042 SCT050 28/24 A3007 RMK AO2 LTG DSNT N TSB22 SLP183 T02830239
KOPF 162128Z 24018G22KT 10SM TS SCT043 BKN050 29/24 A3006 RMK AO2 LTG DSNT NW TSB22 T02940239
KOPF 162121Z 21014KT 10SM VCTS SCT045 31/23 A3005 RMK AO2 LTG DSNT NW T03110228
KOPF 162053Z 13013G17KT 10SM OVC045 32/23 A3005 RMK AO2 LTG DSNT S AND SW SLP178 T03170233 56014
KOPF 161953Z 11008KT 10SM SCT044 32/23 A3005 RMK AO2 LTG DSNT SW SLP178 T03170233
KOPF 161919Z 14009G15KT 10SM FEW038 32/24 A3007 RMK AO2 LTG DSNT SW AND W T03220239
KOPF 161904Z VRB05KT 10SM VCTS FEW036 32/24 A3008 RMK AO2 LTG DSNT SW-N T03170239
KOPF 161853Z 00000KT 10SM SCT033 SCT045 BKN100 32/24 A3008 RMK AO2 LTG DSNT SW-N SLP187 T03170244
KOPF 161810Z 02003KT 10SM SCT033 SCT045 BKN100 29/26 A3010 RMK AO2 LTG DSNT ALQDS T02890256
KOPF 161753Z 03006KT 10SM VCTS SCT035 SCT045 BKN055 27/25 A3010 RMK AO2 WSHFT 1714 LTG DSNT NW-NE RAB23E37 TSE53 SLP192 P0007 60007 T02720250 10328 20267 55001
KOPF 161734Z 31012KT 9SM -TSRA SCT035 SCT045 BKN055 27/23 A3010 RMK AO2 WSHFT 1714 LTG DSNT SW-N RAB23 P0007 T02670233
KOPF 161653Z VRB05KT 10SM TS SCT035 SCT045 BKN055 31/24 A3009 RMK AO2 LTG DSNT SW TSB42 SLP189 T03110244
KOPF 161648Z 13008KT 10SM TS SCT035 SCT045 BKN055 31/24 A3009 RMK AO2 TSB42
KOPF 161553Z 15003KT 10SM SCT047 BKN070 32/23 A3010 RMK AO2 SLP193 T03170228
KOPF 161453Z VRB03KT 10SM SCT049 32/24 A3010 RMK AO2 SLP192 T03220239 51006
KOPF 161353Z 00000KT 10SM FEW050 31/23 A3010 RMK AO2 SLP192 T03060233
KOPF 161253Z 19006KT 10SM SCT050 30/23 A3009 RMK AO2 SLP189 T03000233
KOPF 161153Z 00000KT 10SM FEW028 FEW034 SCT046 28/24 A3008 RMK AO2 SLP186 T02780239 10278 20261 51009
KOPF 161053Z 22003KT 10SM FEW025 26/23 A3007 RMK AO2 SLP183 T02610228
KOPF 160953Z AUTO 17003KT 10SM CLR 27/23 A3005 RMK AO2 SLP177 T02670233
KOPF 160853Z AUTO 17004KT 10SM CLR 27/23 A3004 RMK AO2 SLP173 T02670233 56009
KOPF 160753Z AUTO 20003KT 10SM CLR 27/23 A3004 RMK AO2 SLP174 T02670233
KOPF 160653Z AUTO 15004KT 10SM CLR 27/23 A3005 RMK AO2 SLP176 T02720233
KOPF 160553Z AUTO 19003KT 10SM CLR 28/23 A3007 RMK AO2 SLP183 T02780233 10294 20272 51001
KOPF 160453Z AUTO 19003KT 10SM CLR 28/24 A3007 RMK AO2 SLP183 T02780239 403390244
KOPF 160353Z AUTO 16004KT 10SM CLR 28/24 A3007 RMK AO2 SLP184 T02830239
KOPF 160253Z 16009KT 10SM CLR 28/23 A3007 RMK AO2 SLP182 T02830233 53013
KOPF 160153Z 16007KT 10SM CLR 29/23 A3005 RMK AO2 SLP177 T02890233
KOPF 160053Z 15007KT 10SM CLR 29/22 A3004 RMK AO2 SLP172 T02890217
KOPF 152353Z 13008KT 10SM CLR 29/21 A3003 RMK AO2 SLP169 T02940211 10339 20294 55001